sensor_id;sensor_type;location;lat;lon;timestamp;temperature;humidity
14755;DHT22;7469;50.906;6.952;2022-08-30T00:02:41;19.60;60.30
14755;DHT22;7469;50.906;6.952;2022-08-30T00:05:11;19.50;61.10
14755;DHT22;7469;50.906;6.952;2022-08-30T00:07:39;19.50;62.10
14755;DHT22;7469;50.906;6.952;2022-08-30T00:10:08;19.40;62.90
14755;DHT22;7469;50.906;6.952;2022-08-30T00:12:36;19.30;63.90
14755;DHT22;7469;50.906;6.952;2022-08-30T00:15:06;19.30;65.00
14755;DHT22;7469;50.906;6.952;2022-08-30T00:17:38;19.30;65.90
14755;DHT22;7469;50.906;6.952;2022-08-30T00:20:10;19.20;67.00
14755;DHT22;7469;50.906;6.952;2022-08-30T00:22:40;19.20;68.10
14755;DHT22;7469;50.906;6.952;2022-08-30T00:25:08;19.10;69.10
14755;DHT22;7469;50.906;6.952;2022-08-30T00:27:37;19.10;70.40
14755;DHT22;7469;50.906;6.952;2022-08-30T00:30:06;19.00;71.40
14755;DHT22;7469;50.906;6.952;2022-08-30T00:32:35;19.00;72.70
14755;DHT22;7469;50.906;6.952;2022-08-30T00:35:04;19.00;74.00
14755;DHT22;7469;50.906;6.952;2022-08-30T00:37:32;19.00;75.20
14755;DHT22;7469;50.906;6.952;2022-08-30T00:40:02;19.00;76.00
14755;DHT22;7469;50.906;6.952;2022-08-30T00:42:32;19.10;76.50
14755;DHT22;7469;50.906;6.952;2022-08-30T00:45:12;19.10;76.70
14755;DHT22;7469;50.906;6.952;2022-08-30T00:47:40;19.10;77.00
14755;DHT22;7469;50.906;6.952;2022-08-30T00:50:09;19.10;77.60
14755;DHT22;7469;50.906;6.952;2022-08-30T00:52:40;19.10;78.40
14755;DHT22;7469;50.906;6.952;2022-08-30T00:55:11;19.10;79.20
14755;DHT22;7469;50.906;6.952;2022-08-30T00:57:40;19.10;80.00
14755;DHT22;7469;50.906;6.952;2022-08-30T01:00:11;19.00;80.60
14755;DHT22;7469;50.906;6.952;2022-08-30T01:02:39;19.00;81.40
14755;DHT22;7469;50.906;6.952;2022-08-30T01:05:09;18.90;82.20
14755;DHT22;7469;50.906;6.952;2022-08-30T01:07:41;18.90;82.90
14755;DHT22;7469;50.906;6.952;2022-08-30T01:10:12;18.80;83.60
14755;DHT22;7469;50.906;6.952;2022-08-30T01:12:41;18.80;84.80
14755;DHT22;7469;50.906;6.952;2022-08-30T01:15:12;18.80;85.80
14755;DHT22;7469;50.906;6.952;2022-08-30T01:17:44;18.90;86.70
14755;DHT22;7469;50.906;6.952;2022-08-30T01:20:19;18.80;87.80
14755;DHT22;7469;50.906;6.952;2022-08-30T01:23:06;18.90;88.40
14755;DHT22;7469;50.906;6.952;2022-08-30T01:25:35;18.90;88.50
14755;DHT22;7469;50.906;6.952;2022-08-30T01:28:06;18.90;88.90
14755;DHT22;7469;50.906;6.952;2022-08-30T01:30:36;18.90;89.20
14755;DHT22;7469;50.906;6.952;2022-08-30T01:33:06;18.90;89.60
14755;DHT22;7469;50.906;6.952;2022-08-30T01:35:42;18.90;90.00
14755;DHT22;7469;50.906;6.952;2022-08-30T01:38:12;19.00;90.10
14755;DHT22;7469;50.906;6.952;2022-08-30T01:40:41;19.00;90.30
14755;DHT22;7469;50.906;6.952;2022-08-30T01:43:10;19.00;90.50
14755;DHT22;7469;50.906;6.952;2022-08-30T01:45:39;19.00;90.60
14755;DHT22;7469;50.906;6.952;2022-08-30T01:48:07;19.10;90.60
14755;DHT22;7469;50.906;6.952;2022-08-30T01:50:35;19.10;90.70
14755;DHT22;7469;50.906;6.952;2022-08-30T01:53:06;19.10;90.70
14755;DHT22;7469;50.906;6.952;2022-08-30T01:55:40;19.10;90.90
14755;DHT22;7469;50.906;6.952;2022-08-30T01:58:09;19.10;90.90
14755;DHT22;7469;50.906;6.952;2022-08-30T02:00:37;19.10;90.90
14755;DHT22;7469;50.906;6.952;2022-08-30T02:03:06;19.10;91.00
14755;DHT22;7469;50.906;6.952;2022-08-30T02:05:34;19.20;91.10
14755;DHT22;7469;50.906;6.952;2022-08-30T02:08:02;19.20;91.20
14755;DHT22;7469;50.906;6.952;2022-08-30T02:10:30;19.20;91.20
14755;DHT22;7469;50.906;6.952;2022-08-30T02:13:02;19.20;91.10
14755;DHT22;7469;50.906;6.952;2022-08-30T02:15:30;19.30;91.00
14755;DHT22;7469;50.906;6.952;2022-08-30T02:18:07;19.30;91.00
14755;DHT22;7469;50.906;6.952;2022-08-30T02:20:37;19.30;91.00
14755;DHT22;7469;50.906;6.952;2022-08-30T02:23:05;19.30;91.00
14755;DHT22;7469;50.906;6.952;2022-08-30T02:25:33;19.30;91.00
14755;DHT22;7469;50.906;6.952;2022-08-30T02:28:03;19.30;91.10
14755;DHT22;7469;50.906;6.952;2022-08-30T02:30:32;19.20;91.20
14755;DHT22;7469;50.906;6.952;2022-08-30T02:33:00;19.30;91.20
14755;DHT22;7469;50.906;6.952;2022-08-30T02:35:28;19.30;91.20
14755;DHT22;7469;50.906;6.952;2022-08-30T02:37:56;19.30;91.20
14755;DHT22;7469;50.906;6.952;2022-08-30T02:40:24;19.30;91.20
14755;DHT22;7469;50.906;6.952;2022-08-30T02:42:52;19.30;91.20
14755;DHT22;7469;50.906;6.952;2022-08-30T02:45:22;19.20;91.20
14755;DHT22;7469;50.906;6.952;2022-08-30T02:47:50;19.30;91.20
14755;DHT22;7469;50.906;6.952;2022-08-30T02:50:18;19.20;91.30
14755;DHT22;7469;50.906;6.952;2022-08-30T02:52:46;19.20;91.40
14755;DHT22;7469;50.906;6.952;2022-08-30T02:55:14;19.20;91.50
14755;DHT22;7469;50.906;6.952;2022-08-30T02:57:43;19.20;91.60
14755;DHT22;7469;50.906;6.952;2022-08-30T03:00:14;19.20;91.80
14755;DHT22;7469;50.906;6.952;2022-08-30T03:02:45;19.20;91.80
14755;DHT22;7469;50.906;6.952;2022-08-30T03:05:15;19.10;91.80
14755;DHT22;7469;50.906;6.952;2022-08-30T03:07:44;19.10;91.80
14755;DHT22;7469;50.906;6.952;2022-08-30T03:10:14;19.10;91.90
14755;DHT22;7469;50.906;6.952;2022-08-30T03:12:42;19.10;92.00
14755;DHT22;7469;50.906;6.952;2022-08-30T03:15:11;19.10;92.10
14755;DHT22;7469;50.906;6.952;2022-08-30T03:17:40;19.00;92.20
14755;DHT22;7469;50.906;6.952;2022-08-30T03:20:10;19.00;92.40
14755;DHT22;7469;50.906;6.952;2022-08-30T03:22:38;19.00;92.50
14755;DHT22;7469;50.906;6.952;2022-08-30T03:25:07;18.90;92.80
14755;DHT22;7469;50.906;6.952;2022-08-30T03:27:36;18.90;93.10
14755;DHT22;7469;50.906;6.952;2022-08-30T03:30:04;18.80;93.20
14755;DHT22;7469;50.906;6.952;2022-08-30T03:32:33;18.80;93.40
14755;DHT22;7469;50.906;6.952;2022-08-30T03:35:01;18.80;93.60
14755;DHT22;7469;50.906;6.952;2022-08-30T03:37:30;18.70;93.70
14755;DHT22;7469;50.906;6.952;2022-08-30T03:39:58;18.80;93.80
14755;DHT22;7469;50.906;6.952;2022-08-30T03:42:27;18.70;93.90
14755;DHT22;7469;50.906;6.952;2022-08-30T03:44:55;18.80;94.10
14755;DHT22;7469;50.906;6.952;2022-08-30T03:47:23;18.80;94.20
14755;DHT22;7469;50.906;6.952;2022-08-30T03:49:51;18.80;94.40
14755;DHT22;7469;50.906;6.952;2022-08-30T03:52:19;18.80;94.50
14755;DHT22;7469;50.906;6.952;2022-08-30T03:54:49;18.80;94.70
14755;DHT22;7469;50.906;6.952;2022-08-30T03:57:17;18.80;94.90
14755;DHT22;7469;50.906;6.952;2022-08-30T03:59:50;18.70;95.10
14755;DHT22;7469;50.906;6.952;2022-08-30T04:02:18;18.60;95.30
14755;DHT22;7469;50.906;6.952;2022-08-30T04:04:46;18.60;95.50
14755;DHT22;7469;50.906;6.952;2022-08-30T04:07:14;18.60;95.80
14755;DHT22;7469;50.906;6.952;2022-08-30T04:09:43;18.50;96.10
14755;DHT22;7469;50.906;6.952;2022-08-30T04:12:12;18.50;96.40
14755;DHT22;7469;50.906;6.952;2022-08-30T04:14:46;18.40;96.70
14755;DHT22;7469;50.906;6.952;2022-08-30T04:17:14;18.40;97.00
14755;DHT22;7469;50.906;6.952;2022-08-30T04:19:41;18.40;97.70
14755;DHT22;7469;50.906;6.952;2022-08-30T04:22:10;18.30;97.70
14755;DHT22;7469;50.906;6.952;2022-08-30T04:24:37;18.20;98.10
14755;DHT22;7469;50.906;6.952;2022-08-30T04:27:08;18.20;98.50
14755;DHT22;7469;50.906;6.952;2022-08-30T04:29:37;18.10;98.90
14755;DHT22;7469;50.906;6.952;2022-08-30T04:32:05;18.00;99.30
14755;DHT22;7469;50.906;6.952;2022-08-30T04:34:33;18.00;99.70
14755;DHT22;7469;50.906;6.952;2022-08-30T04:37:01;18.00;99.90
14755;DHT22;7469;50.906;6.952;2022-08-30T04:39:29;17.90;99.90
14755;DHT22;7469;50.906;6.952;2022-08-30T04:41:57;17.90;99.90
14755;DHT22;7469;50.906;6.952;2022-08-30T04:44:25;17.80;99.90
14755;DHT22;7469;50.906;6.952;2022-08-30T04:46:55;17.80;99.90
14755;DHT22;7469;50.906;6.952;2022-08-30T04:49:23;17.70;99.90
14755;DHT22;7469;50.906;6.952;2022-08-30T04:51:51;17.70;99.90
14755;DHT22;7469;50.906;6.952;2022-08-30T04:54:19;17.70;99.90
14755;DHT22;7469;50.906;6.952;2022-08-30T04:56:47;17.70;99.90
14755;DHT22;7469;50.906;6.952;2022-08-30T04:59:14;17.70;99.90
14755;DHT22;7469;50.906;6.952;2022-08-30T05:01:43;17.80;99.90
14755;DHT22;7469;50.906;6.952;2022-08-30T05:04:13;17.80;99.90
14755;DHT22;7469;50.906;6.952;2022-08-30T05:06:42;17.90;99.90
14755;DHT22;7469;50.906;6.952;2022-08-30T05:09:10;18.00;99.90
14755;DHT22;7469;50.906;6.952;2022-08-30T05:11:38;18.10;99.90
14755;DHT22;7469;50.906;6.952;2022-08-30T05:14:09;18.20;99.90
14755;DHT22;7469;50.906;6.952;2022-08-30T05:16:37;18.20;99.90
14755;DHT22;7469;50.906;6.952;2022-08-30T05:19:06;18.30;99.90
14755;DHT22;7469;50.906;6.952;2022-08-30T05:21:36;18.40;99.90
14755;DHT22;7469;50.906;6.952;2022-08-30T05:24:07;18.40;99.90
14755;DHT22;7469;50.906;6.952;2022-08-30T05:26:36;18.40;99.90
14755;DHT22;7469;50.906;6.952;2022-08-30T05:29:04;18.40;99.90
14755;DHT22;7469;50.906;6.952;2022-08-30T05:31:34;18.40;99.90
14755;DHT22;7469;50.906;6.952;2022-08-30T05:34:03;18.40;99.90
14755;DHT22;7469;50.906;6.952;2022-08-30T05:36:33;18.40;99.90
14755;DHT22;7469;50.906;6.952;2022-08-30T05:39:04;18.40;99.90
14755;DHT22;7469;50.906;6.952;2022-08-30T05:41:32;18.50;99.90
14755;DHT22;7469;50.906;6.952;2022-08-30T05:44:04;18.60;99.90
14755;DHT22;7469;50.906;6.952;2022-08-30T05:46:33;18.70;99.90
14755;DHT22;7469;50.906;6.952;2022-08-30T05:49:03;18.80;99.90
14755;DHT22;7469;50.906;6.952;2022-08-30T05:51:33;18.90;99.90
14755;DHT22;7469;50.906;6.952;2022-08-30T05:54:10;18.90;99.90
14755;DHT22;7469;50.906;6.952;2022-08-30T05:56:40;19.00;99.90
14755;DHT22;7469;50.906;6.952;2022-08-30T05:59:11;19.10;99.90
14755;DHT22;7469;50.906;6.952;2022-08-30T06:01:41;19.20;99.90
14755;DHT22;7469;50.906;6.952;2022-08-30T06:04:10;19.40;99.90
14755;DHT22;7469;50.906;6.952;2022-08-30T06:06:40;19.40;99.90
14755;DHT22;7469;50.906;6.952;2022-08-30T06:09:12;19.60;99.90
14755;DHT22;7469;50.906;6.952;2022-08-30T06:11:40;19.80;99.90
14755;DHT22;7469;50.906;6.952;2022-08-30T06:14:08;19.90;99.90
14755;DHT22;7469;50.906;6.952;2022-08-30T06:16:38;20.00;99.90
14755;DHT22;7469;50.906;6.952;2022-08-30T06:19:07;20.10;99.90
14755;DHT22;7469;50.906;6.952;2022-08-30T06:21:37;20.20;99.70
14755;DHT22;7469;50.906;6.952;2022-08-30T06:24:07;20.30;99.40
14755;DHT22;7469;50.906;6.952;2022-08-30T06:26:39;20.40;99.20
14755;DHT22;7469;50.906;6.952;2022-08-30T06:29:09;20.40;98.90
14755;DHT22;7469;50.906;6.952;2022-08-30T06:31:37;20.50;98.70
14755;DHT22;7469;50.906;6.952;2022-08-30T06:34:06;20.50;98.50
14755;DHT22;7469;50.906;6.952;2022-08-30T06:36:34;20.40;98.30
14755;DHT22;7469;50.906;6.952;2022-08-30T06:39:03;20.40;98.20
14755;DHT22;7469;50.906;6.952;2022-08-30T06:41:33;20.40;98.10
14755;DHT22;7469;50.906;6.952;2022-08-30T06:44:04;20.30;98.10
14755;DHT22;7469;50.906;6.952;2022-08-30T06:46:34;20.30;98.10
14755;DHT22;7469;50.906;6.952;2022-08-30T06:49:04;20.30;98.10
14755;DHT22;7469;50.906;6.952;2022-08-30T06:51:35;20.30;97.90
14755;DHT22;7469;50.906;6.952;2022-08-30T06:54:06;20.40;97.80
14755;DHT22;7469;50.906;6.952;2022-08-30T06:56:38;20.40;97.60
14755;DHT22;7469;50.906;6.952;2022-08-30T06:59:25;20.50;97.50
14755;DHT22;7469;50.906;6.952;2022-08-30T07:01:53;20.50;97.40
14755;DHT22;7469;50.906;6.952;2022-08-30T07:04:21;20.60;97.40
14755;DHT22;7469;50.906;6.952;2022-08-30T07:06:50;20.70;97.30
14755;DHT22;7469;50.906;6.952;2022-08-30T07:09:18;20.80;97.30
14755;DHT22;7469;50.906;6.952;2022-08-30T07:11:49;21.00;97.00
14755;DHT22;7469;50.906;6.952;2022-08-30T07:14:18;21.20;96.70
14755;DHT22;7469;50.906;6.952;2022-08-30T07:16:47;21.40;96.20
14755;DHT22;7469;50.906;6.952;2022-08-30T07:19:17;21.60;95.70
14755;DHT22;7469;50.906;6.952;2022-08-30T07:21:46;21.80;95.20
14755;DHT22;7469;50.906;6.952;2022-08-30T07:24:15;22.00;94.80
14755;DHT22;7469;50.906;6.952;2022-08-30T07:26:46;22.10;94.40
14755;DHT22;7469;50.906;6.952;2022-08-30T07:29:16;22.20;94.00
14755;DHT22;7469;50.906;6.952;2022-08-30T07:31:44;22.20;93.70
14755;DHT22;7469;50.906;6.952;2022-08-30T07:34:13;22.10;93.40
14755;DHT22;7469;50.906;6.952;2022-08-30T07:36:41;22.00;93.30
14755;DHT22;7469;50.906;6.952;2022-08-30T07:39:09;22.10;93.30
14755;DHT22;7469;50.906;6.952;2022-08-30T07:41:37;22.10;93.30
14755;DHT22;7469;50.906;6.952;2022-08-30T07:44:05;22.30;93.10
14755;DHT22;7469;50.906;6.952;2022-08-30T07:46:34;22.30;92.70
14755;DHT22;7469;50.906;6.952;2022-08-30T07:49:02;22.40;92.50
14755;DHT22;7469;50.906;6.952;2022-08-30T07:51:38;22.50;92.30
14755;DHT22;7469;50.906;6.952;2022-08-30T07:54:07;22.50;92.00
14755;DHT22;7469;50.906;6.952;2022-08-30T07:56:35;22.50;91.80
14755;DHT22;7469;50.906;6.952;2022-08-30T07:59:03;22.70;91.70
14755;DHT22;7469;50.906;6.952;2022-08-30T08:01:31;23.00;91.40
14755;DHT22;7469;50.906;6.952;2022-08-30T08:03:59;23.20;90.80
14755;DHT22;7469;50.906;6.952;2022-08-30T08:06:27;23.40;90.30
14755;DHT22;7469;50.906;6.952;2022-08-30T08:09:02;23.70;89.40
14755;DHT22;7469;50.906;6.952;2022-08-30T08:11:32;23.90;88.10
14755;DHT22;7469;50.906;6.952;2022-08-30T08:14:01;24.10;86.80
14755;DHT22;7469;50.906;6.952;2022-08-30T08:16:31;24.30;85.00
14755;DHT22;7469;50.906;6.952;2022-08-30T08:18:59;24.30;83.90
14755;DHT22;7469;50.906;6.952;2022-08-30T08:21:27;24.40;83.10
14755;DHT22;7469;50.906;6.952;2022-08-30T08:23:55;24.30;82.50
14755;DHT22;7469;50.906;6.952;2022-08-30T08:26:25;24.30;81.90
14755;DHT22;7469;50.906;6.952;2022-08-30T08:28:53;24.30;81.10
14755;DHT22;7469;50.906;6.952;2022-08-30T08:31:23;24.30;80.70
14755;DHT22;7469;50.906;6.952;2022-08-30T08:33:59;24.40;80.00
14755;DHT22;7469;50.906;6.952;2022-08-30T08:36:29;24.60;78.80
14755;DHT22;7469;50.906;6.952;2022-08-30T08:38:57;24.80;77.30
14755;DHT22;7469;50.906;6.952;2022-08-30T08:41:39;24.80;76.00
14755;DHT22;7469;50.906;6.952;2022-08-30T08:44:13;25.00;75.10
14755;DHT22;7469;50.906;6.952;2022-08-30T08:46:48;25.20;73.80
14755;DHT22;7469;50.906;6.952;2022-08-30T08:49:18;25.40;72.30
14755;DHT22;7469;50.906;6.952;2022-08-30T08:51:47;25.50;71.10
14755;DHT22;7469;50.906;6.952;2022-08-30T08:54:38;25.70;70.30
14755;DHT22;7469;50.906;6.952;2022-08-30T08:57:08;25.90;69.50
14755;DHT22;7469;50.906;6.952;2022-08-30T08:59:42;26.00;67.90
14755;DHT22;7469;50.906;6.952;2022-08-30T09:02:23;26.10;65.80
14755;DHT22;7469;50.906;6.952;2022-08-30T09:04:54;26.20;64.10
14755;DHT22;7469;50.906;6.952;2022-08-30T09:07:26;26.40;63.40
14755;DHT22;7469;50.906;6.952;2022-08-30T09:09:56;26.50;62.60
14755;DHT22;7469;50.906;6.952;2022-08-30T09:12:27;26.60;60.30
14755;DHT22;7469;50.906;6.952;2022-08-30T09:15:02;26.70;60.40
14755;DHT22;7469;50.906;6.952;2022-08-30T09:17:48;26.90;58.40
14755;DHT22;7469;50.906;6.952;2022-08-30T09:20:30;27.10;58.20
14755;DHT22;7469;50.906;6.952;2022-08-30T09:23:18;27.30;56.40
14755;DHT22;7469;50.906;6.952;2022-08-30T09:25:50;27.60;55.50
14755;DHT22;7469;50.906;6.952;2022-08-30T09:28:23;28.40;54.10
14755;DHT22;7469;50.906;6.952;2022-08-30T09:31:00;29.50;50.70
14755;DHT22;7469;50.906;6.952;2022-08-30T09:33:29;30.70;45.80
14755;DHT22;7469;50.906;6.952;2022-08-30T09:36:11;31.30;41.90
14755;DHT22;7469;50.906;6.952;2022-08-30T09:38:40;32.10;39.50
14755;DHT22;7469;50.906;6.952;2022-08-30T09:41:32;33.30;34.40
14755;DHT22;7469;50.906;6.952;2022-08-30T09:44:14;35.40;29.70
14755;DHT22;7469;50.906;6.952;2022-08-30T09:46:47;37.60;24.80
14755;DHT22;7469;50.906;6.952;2022-08-30T09:49:31;39.40;20.40
14755;DHT22;7469;50.906;6.952;2022-08-30T09:52:11;39.50;17.90
14755;DHT22;7469;50.906;6.952;2022-08-30T09:54:47;38.20;17.30
14755;DHT22;7469;50.906;6.952;2022-08-30T09:57:26;36.60;18.80
14755;DHT22;7469;50.906;6.952;2022-08-30T10:00:05;35.60;19.70
14755;DHT22;7469;50.906;6.952;2022-08-30T10:02:55;34.70;20.20
14755;DHT22;7469;50.906;6.952;2022-08-30T10:05:31;33.90;21.10
14755;DHT22;7469;50.906;6.952;2022-08-30T10:08:08;33.30;21.80
14755;DHT22;7469;50.906;6.952;2022-08-30T10:10:46;33.20;22.10
14755;DHT22;7469;50.906;6.952;2022-08-30T10:16:23;35.20;20.80
14755;DHT22;7469;50.906;6.952;2022-08-30T10:19:02;36.70;19.20
14755;DHT22;7469;50.906;6.952;2022-08-30T10:21:37;36.70;18.50
14755;DHT22;7469;50.906;6.952;2022-08-30T10:24:09;36.00;18.70
14755;DHT22;7469;50.906;6.952;2022-08-30T10:26:42;35.30;19.10
14755;DHT22;7469;50.906;6.952;2022-08-30T10:29:15;35.00;19.50
14755;DHT22;7469;50.906;6.952;2022-08-30T10:31:51;34.70;19.50
14755;DHT22;7469;50.906;6.952;2022-08-30T10:34:26;34.40;19.80
14755;DHT22;7469;50.906;6.952;2022-08-30T10:36:58;34.40;19.70
14755;DHT22;7469;50.906;6.952;2022-08-30T10:39:31;34.10;20.00
14755;DHT22;7469;50.906;6.952;2022-08-30T10:42:06;34.20;20.30
14755;DHT22;7469;50.906;6.952;2022-08-30T10:44:38;34.70;19.60
14755;DHT22;7469;50.906;6.952;2022-08-30T10:47:21;34.70;19.30
14755;DHT22;7469;50.906;6.952;2022-08-30T10:49:56;35.80;18.70
14755;DHT22;7469;50.906;6.952;2022-08-30T10:52:33;37.50;17.10
14755;DHT22;7469;50.906;6.952;2022-08-30T10:55:08;39.20;15.30
14755;DHT22;7469;50.906;6.952;2022-08-30T10:57:37;39.00;14.50
14755;DHT22;7469;50.906;6.952;2022-08-30T11:00:11;39.20;14.00
14755;DHT22;7469;50.906;6.952;2022-08-30T11:03:16;39.90;13.70
14755;DHT22;7469;50.906;6.952;2022-08-30T11:06:05;40.90;12.80
14755;DHT22;7469;50.906;6.952;2022-08-30T11:08:58;41.10;11.80
14755;DHT22;7469;50.906;6.952;2022-08-30T11:11:38;41.40;11.60
14755;DHT22;7469;50.906;6.952;2022-08-30T11:14:09;41.70;11.20
14755;DHT22;7469;50.906;6.952;2022-08-30T11:16:42;41.70;10.80
14755;DHT22;7469;50.906;6.952;2022-08-30T11:19:18;40.70;10.80
14755;DHT22;7469;50.906;6.952;2022-08-30T11:21:47;40.00;11.40
14755;DHT22;7469;50.906;6.952;2022-08-30T11:24:18;40.10;11.50
14755;DHT22;7469;50.906;6.952;2022-08-30T11:26:54;40.10;11.50
14755;DHT22;7469;50.906;6.952;2022-08-30T11:29:41;39.70;11.60
14755;DHT22;7469;50.906;6.952;2022-08-30T11:32:22;39.10;12.10
14755;DHT22;7469;50.906;6.952;2022-08-30T11:34:59;38.10;12.60
14755;DHT22;7469;50.906;6.952;2022-08-30T11:37:37;37.10;13.40
14755;DHT22;7469;50.906;6.952;2022-08-30T11:40:09;36.40;13.90
14755;DHT22;7469;50.906;6.952;2022-08-30T11:42:44;36.00;14.30
14755;DHT22;7469;50.906;6.952;2022-08-30T11:45:46;35.70;14.40
14755;DHT22;7469;50.906;6.952;2022-08-30T11:48:38;35.20;14.80
14755;DHT22;7469;50.906;6.952;2022-08-30T11:51:42;34.80;15.20
14755;DHT22;7469;50.906;6.952;2022-08-30T11:54:39;34.60;15.50
14755;DHT22;7469;50.906;6.952;2022-08-30T11:57:19;34.40;16.00
14755;DHT22;7469;50.906;6.952;2022-08-30T12:00:03;34.10;16.20
14755;DHT22;7469;50.906;6.952;2022-08-30T12:02:45;33.90;16.50
14755;DHT22;7469;50.906;6.952;2022-08-30T12:05:44;33.60;16.40
14755;DHT22;7469;50.906;6.952;2022-08-30T12:08:39;33.30;16.60
14755;DHT22;7469;50.906;6.952;2022-08-30T12:17:24;32.60;17.70
14755;DHT22;7469;50.906;6.952;2022-08-30T12:20:25;32.50;17.80
14755;DHT22;7469;50.906;6.952;2022-08-30T12:22:55;32.50;17.80
14755;DHT22;7469;50.906;6.952;2022-08-30T12:25:29;32.50;17.90
14755;DHT22;7469;50.906;6.952;2022-08-30T12:28:11;32.70;17.80
14755;DHT22;7469;50.906;6.952;2022-08-30T12:30:40;32.70;17.50
14755;DHT22;7469;50.906;6.952;2022-08-30T12:33:15;32.60;17.60
14755;DHT22;7469;50.906;6.952;2022-08-30T12:35:55;32.50;17.70
14755;DHT22;7469;50.906;6.952;2022-08-30T12:38:26;32.40;17.80
14755;DHT22;7469;50.906;6.952;2022-08-30T12:40:59;32.20;17.90
14755;DHT22;7469;50.906;6.952;2022-08-30T12:43:36;32.00;18.20
14755;DHT22;7469;50.906;6.952;2022-08-30T12:46:09;31.80;18.60
14755;DHT22;7469;50.906;6.952;2022-08-30T12:48:41;31.60;18.80
14755;DHT22;7469;50.906;6.952;2022-08-30T12:51:29;31.50;19.10
14755;DHT22;7469;50.906;6.952;2022-08-30T12:54:06;31.50;19.40
14755;DHT22;7469;50.906;6.952;2022-08-30T12:57:01;31.70;19.40
14755;DHT22;7469;50.906;6.952;2022-08-30T12:59:51;31.80;19.10
14755;DHT22;7469;50.906;6.952;2022-08-30T13:02:42;31.90;19.00
14755;DHT22;7469;50.906;6.952;2022-08-30T13:05:44;31.90;19.00
14755;DHT22;7469;50.906;6.952;2022-08-30T13:08:19;32.00;18.80
14755;DHT22;7469;50.906;6.952;2022-08-30T13:10:50;32.10;18.90
14755;DHT22;7469;50.906;6.952;2022-08-30T13:13:37;32.20;18.80
14755;DHT22;7469;50.906;6.952;2022-08-30T13:16:22;32.10;18.80
14755;DHT22;7469;50.906;6.952;2022-08-30T13:19:17;32.20;18.90
14755;DHT22;7469;50.906;6.952;2022-08-30T13:21:51;32.20;18.80
14755;DHT22;7469;50.906;6.952;2022-08-30T13:24:19;32.20;18.90
14755;DHT22;7469;50.906;6.952;2022-08-30T13:26:52;32.20;18.80
14755;DHT22;7469;50.906;6.952;2022-08-30T13:29:25;32.30;18.80
14755;DHT22;7469;50.906;6.952;2022-08-30T13:31:54;32.40;18.70
14755;DHT22;7469;50.906;6.952;2022-08-30T13:34:22;32.40;18.70
14755;DHT22;7469;50.906;6.952;2022-08-30T13:36:53;32.50;18.60
14755;DHT22;7469;50.906;6.952;2022-08-30T13:39:22;32.60;18.70
14755;DHT22;7469;50.906;6.952;2022-08-30T13:41:51;32.60;18.60
14755;DHT22;7469;50.906;6.952;2022-08-30T13:44:19;32.60;18.60
14755;DHT22;7469;50.906;6.952;2022-08-30T13:46:51;32.60;18.90
14755;DHT22;7469;50.906;6.952;2022-08-30T13:49:41;32.50;19.10
14755;DHT22;7469;50.906;6.952;2022-08-30T13:52:13;32.50;19.30
14755;DHT22;7469;50.906;6.952;2022-08-30T13:54:48;32.40;19.30
14755;DHT22;7469;50.906;6.952;2022-08-30T13:57:18;32.40;19.40
14755;DHT22;7469;50.906;6.952;2022-08-30T14:00:10;32.40;19.30
14755;DHT22;7469;50.906;6.952;2022-08-30T14:02:42;32.30;19.50
14755;DHT22;7469;50.906;6.952;2022-08-30T14:05:19;32.40;19.70
14755;DHT22;7469;50.906;6.952;2022-08-30T14:08:08;32.20;19.70
14755;DHT22;7469;50.906;6.952;2022-08-30T14:10:57;32.20;19.80
14755;DHT22;7469;50.906;6.952;2022-08-30T14:13:25;32.20;20.00
14755;DHT22;7469;50.906;6.952;2022-08-30T14:15:55;32.30;19.90
14755;DHT22;7469;50.906;6.952;2022-08-30T14:18:45;32.40;19.90
14755;DHT22;7469;50.906;6.952;2022-08-30T14:21:14;32.50;19.90
14755;DHT22;7469;50.906;6.952;2022-08-30T14:23:47;32.60;19.90
14755;DHT22;7469;50.906;6.952;2022-08-30T14:26:17;32.80;19.70
14755;DHT22;7469;50.906;6.952;2022-08-30T14:28:46;33.10;19.60
14755;DHT22;7469;50.906;6.952;2022-08-30T14:31:18;33.20;19.30
14755;DHT22;7469;50.906;6.952;2022-08-30T14:33:48;33.30;19.10
14755;DHT22;7469;50.906;6.952;2022-08-30T14:36:16;33.20;19.00
14755;DHT22;7469;50.906;6.952;2022-08-30T14:38:46;33.00;19.20
14755;DHT22;7469;50.906;6.952;2022-08-30T14:41:15;32.80;19.50
14755;DHT22;7469;50.906;6.952;2022-08-30T14:43:43;32.70;19.50
14755;DHT22;7469;50.906;6.952;2022-08-30T14:46:11;32.50;19.70
14755;DHT22;7469;50.906;6.952;2022-08-30T14:48:40;32.20;19.90
14755;DHT22;7469;50.906;6.952;2022-08-30T14:51:15;32.10;20.30
14755;DHT22;7469;50.906;6.952;2022-08-30T14:53:44;32.00;20.70
14755;DHT22;7469;50.906;6.952;2022-08-30T14:56:14;31.80;21.10
14755;DHT22;7469;50.906;6.952;2022-08-30T14:58:46;32.00;21.30
14755;DHT22;7469;50.906;6.952;2022-08-30T15:01:15;32.00;21.40
14755;DHT22;7469;50.906;6.952;2022-08-30T15:03:43;32.10;21.30
14755;DHT22;7469;50.906;6.952;2022-08-30T15:06:12;32.20;21.10
14755;DHT22;7469;50.906;6.952;2022-08-30T15:08:43;32.20;21.00
14755;DHT22;7469;50.906;6.952;2022-08-30T15:11:15;32.20;21.00
14755;DHT22;7469;50.906;6.952;2022-08-30T15:13:44;32.20;21.00
14755;DHT22;7469;50.906;6.952;2022-08-30T15:16:15;32.20;21.00
14755;DHT22;7469;50.906;6.952;2022-08-30T15:18:44;32.10;21.20
14755;DHT22;7469;50.906;6.952;2022-08-30T15:21:12;32.10;21.30
14755;DHT22;7469;50.906;6.952;2022-08-30T15:23:40;32.20;21.40
14755;DHT22;7469;50.906;6.952;2022-08-30T15:26:11;32.10;21.50
14755;DHT22;7469;50.906;6.952;2022-08-30T15:28:39;32.00;21.60
14755;DHT22;7469;50.906;6.952;2022-08-30T15:31:07;31.90;21.70
14755;DHT22;7469;50.906;6.952;2022-08-30T15:33:36;31.80;21.70
14755;DHT22;7469;50.906;6.952;2022-08-30T15:36:05;31.70;21.90
14755;DHT22;7469;50.906;6.952;2022-08-30T15:38:34;31.50;22.20
14755;DHT22;7469;50.906;6.952;2022-08-30T15:41:04;31.30;22.40
14755;DHT22;7469;50.906;6.952;2022-08-30T15:43:34;31.20;22.50
14755;DHT22;7469;50.906;6.952;2022-08-30T15:46:15;31.20;22.70
14755;DHT22;7469;50.906;6.952;2022-08-30T15:48:44;31.20;23.00
14755;DHT22;7469;50.906;6.952;2022-08-30T15:51:14;31.00;23.20
14755;DHT22;7469;50.906;6.952;2022-08-30T15:53:43;30.80;23.30
14755;DHT22;7469;50.906;6.952;2022-08-30T15:56:12;30.60;23.60
14755;DHT22;7469;50.906;6.952;2022-08-30T15:58:43;30.30;23.60
14755;DHT22;7469;50.906;6.952;2022-08-30T16:01:14;30.10;23.80
14755;DHT22;7469;50.906;6.952;2022-08-30T16:03:45;30.00;24.00
14755;DHT22;7469;50.906;6.952;2022-08-30T16:06:16;29.80;24.30
14755;DHT22;7469;50.906;6.952;2022-08-30T16:08:45;29.70;24.60
14755;DHT22;7469;50.906;6.952;2022-08-30T16:11:16;29.60;24.90
14755;DHT22;7469;50.906;6.952;2022-08-30T16:13:54;29.40;25.30
14755;DHT22;7469;50.906;6.952;2022-08-30T16:16:22;29.40;25.50
14755;DHT22;7469;50.906;6.952;2022-08-30T16:18:52;29.40;25.50
14755;DHT22;7469;50.906;6.952;2022-08-30T16:21:26;29.40;25.80
14755;DHT22;7469;50.906;6.952;2022-08-30T16:23:59;29.30;26.00
14755;DHT22;7469;50.906;6.952;2022-08-30T16:26:32;29.30;26.10
14755;DHT22;7469;50.906;6.952;2022-08-30T16:31:30;29.10;26.40